Time;durP1;ratioP1;P1;durP2;ratioP2;P2;SDS_P1;SDS_P2;PMS_P1;PMS_P2;Temp;Humidity;BMP_temperature;BMP_pressure;BME280_temperature;BME280_humidity;BME280_pressure;Samples;Min_cycle;Max_cycle;Signal;HPM_P1;HPM_P2
2022/07/10 00:01:31;;;;;;;2.43;1.33;;;16.60;99.90;;;;;;5040456;28;20269;-33
2022/07/10 00:03:57;;;;;;;2.40;1.23;;;16.60;99.90;;;;;;5042823;28;20195;-34
2022/07/10 00:06:23;;;;;;;3.03;1.13;;;16.50;99.90;;;;;;5029508;28;20206;-33
2022/07/10 00:08:48;;;;;;;2.30;1.30;;;16.50;99.90;;;;;;5038358;28;20708;-33
2022/07/10 00:11:14;;;;;;;3.93;1.60;;;16.50;99.90;;;;;;5036155;28;20189;-33
2022/07/10 00:13:40;;;;;;;4.03;1.20;;;16.50;99.90;;;;;;5029312;28;20223;-33
2022/07/10 00:16:06;;;;;;;2.57;1.50;;;16.50;99.90;;;;;;5029434;28;20182;-33
2022/07/10 00:18:31;;;;;;;1.40;1.20;;;16.50;99.90;;;;;;5028502;28;20248;-33
2022/07/10 00:20:57;;;;;;;2.97;1.20;;;16.50;99.90;;;;;;5032022;28;20904;-33
2022/07/10 00:23:23;;;;;;;2.30;1.00;;;16.50;99.90;;;;;;5032303;28;20229;-33
2022/07/10 00:25:49;;;;;;;3.63;1.40;;;16.50;99.90;;;;;;5028640;28;20290;-33
2022/07/10 00:28:14;;;;;;;4.10;1.50;;;16.50;99.90;;;;;;5032412;28;20209;-33
2022/07/10 00:30:40;;;;;;;2.33;1.10;;;16.50;99.90;;;;;;5049213;28;20243;-33
2022/07/10 00:33:06;;;;;;;3.53;1.00;;;16.40;99.90;;;;;;5049221;28;20228;-33
2022/07/10 00:35:31;;;;;;;1.90;0.90;;;16.40;99.90;;;;;;5049268;28;20198;-33
2022/07/10 00:37:57;;;;;;;2.80;1.50;;;16.40;99.90;;;;;;5048574;28;20197;-33
2022/07/10 00:40:23;;;;;;;2.30;1.27;;;16.40;99.90;;;;;;5052595;28;20220;-33
2022/07/10 00:42:49;;;;;;;3.00;1.40;;;16.40;99.90;;;;;;5052604;28;20231;-33
2022/07/10 00:45:15;;;;;;;2.03;1.13;;;16.40;99.90;;;;;;5052424;28;20189;-33
2022/07/10 00:47:40;;;;;;;2.77;1.20;;;16.40;99.90;;;;;;5051768;28;20469;-33
2022/07/10 00:50:07;;;;;;;3.87;1.10;;;16.30;99.90;;;;;;5052283;28;20201;-33
2022/07/10 00:52:38;;;;;;;4.30;1.43;;;16.30;99.90;;;;;;5052636;28;20197;-33
2022/07/10 00:55:08;;;;;;;5.17;1.30;;;16.30;99.90;;;;;;5050720;28;20420;-33
2022/07/10 00:57:36;;;;;;;2.90;0.97;;;16.30;99.90;;;;;;5043646;28;20507;-33
2022/07/10 01:00:02;;;;;;;3.53;1.40;;;16.20;99.90;;;;;;5040993;28;20421;-34
2022/07/10 01:02:28;;;;;;;5.10;1.27;;;16.20;99.90;;;;;;5032260;28;20453;-33
2022/07/10 01:04:57;;;;;;;2.87;1.20;;;16.30;99.90;;;;;;5032344;28;20487;-33
2022/07/10 01:07:23;;;;;;;4.07;1.10;;;16.20;99.90;;;;;;5031517;28;20206;-33
2022/07/10 01:09:49;;;;;;;1.33;0.97;;;16.20;99.90;;;;;;5032295;28;20424;-34
2022/07/10 01:12:16;;;;;;;3.07;1.37;;;16.10;99.90;;;;;;5032091;28;20194;-33
2022/07/10 01:14:43;;;;;;;2.90;1.10;;;16.20;99.90;;;;;;5031990;28;20552;-33
2022/07/10 01:17:09;;;;;;;2.73;1.33;;;16.20;99.90;;;;;;5031326;28;20424;-33
2022/07/10 01:19:35;;;;;;;2.17;1.20;;;16.20;99.90;;;;;;5032069;28;20467;-34
2022/07/10 01:22:01;;;;;;;2.80;1.07;;;16.10;99.90;;;;;;5037506;28;20513;-33
2022/07/10 01:24:27;;;;;;;4.50;1.00;;;16.10;99.90;;;;;;5031914;28;20685;-33
2022/07/10 01:26:52;;;;;;;2.00;1.20;;;16.10;99.90;;;;;;5030179;28;20425;-33
2022/07/10 01:29:19;;;;;;;3.20;1.43;;;16.10;99.90;;;;;;5044310;28;20198;-33
2022/07/10 01:31:46;;;;;;;2.90;1.13;;;16.20;99.90;;;;;;5051777;28;20194;-33
2022/07/10 01:34:12;;;;;;;1.93;1.00;;;16.20;99.90;;;;;;5051549;28;20468;-33
2022/07/10 01:36:38;;;;;;;5.70;1.30;;;16.20;99.90;;;;;;5051130;28;20423;-33
2022/07/10 01:39:04;;;;;;;2.97;1.30;;;16.10;99.90;;;;;;5051461;28;20193;-33
2022/07/10 01:41:29;;;;;;;3.30;1.00;;;16.10;99.90;;;;;;5051305;28;20416;-33
2022/07/10 01:43:55;;;;;;;1.60;1.50;;;16.10;99.90;;;;;;5051261;28;20431;-33
2022/07/10 01:46:21;;;;;;;2.83;1.10;;;16.10;99.90;;;;;;5051595;28;20223;-33
2022/07/10 01:48:48;;;;;;;3.67;1.47;;;16.10;99.90;;;;;;5050676;28;20198;-34
2022/07/10 01:51:14;;;;;;;2.20;1.23;;;16.10;99.90;;;;;;5051272;28;20508;-33
2022/07/10 01:53:40;;;;;;;5.17;1.53;;;16.20;99.90;;;;;;5051303;28;20542;-33
2022/07/10 01:56:08;;;;;;;4.07;1.87;;;16.10;99.90;;;;;;5051265;28;20416;-33
2022/07/10 01:58:34;;;;;;;5.33;1.50;;;16.10;99.90;;;;;;5050366;28;20482;-33
2022/07/10 02:01:01;;;;;;;4.13;1.30;;;16.10;99.90;;;;;;5051246;28;21014;-33
2022/07/10 02:06:11;;;;;;;2.07;1.33;;;16.00;99.90;;;;;;5051075;28;20956;-33
2022/07/10 02:08:36;;;;;;;3.70;1.40;;;16.00;99.90;;;;;;5050210;28;20515;-33
2022/07/10 02:11:02;;;;;;;3.50;1.37;;;15.90;99.90;;;;;;5051015;28;20209;-33
2022/07/10 02:13:28;;;;;;;5.17;1.50;;;15.90;99.90;;;;;;5050751;28;20217;-33
2022/07/10 02:15:55;;;;;;;2.30;1.10;;;15.90;99.90;;;;;;5051022;28;20506;-34
2022/07/10 02:18:21;;;;;;;3.53;1.20;;;16.00;99.90;;;;;;5050204;28;20208;-33
2022/07/10 02:20:47;;;;;;;3.47;1.63;;;16.00;99.90;;;;;;5049596;28;20435;-33
2022/07/10 02:23:13;;;;;;;3.73;1.27;;;16.00;99.90;;;;;;5030682;28;20421;-33
2022/07/10 02:25:38;;;;;;;3.80;1.60;;;16.00;99.90;;;;;;5030057;28;21490;-33
2022/07/10 02:28:04;;;;;;;2.70;1.30;;;16.00;99.90;;;;;;5030748;28;20198;-33
2022/07/10 02:30:30;;;;;;;3.03;0.97;;;16.10;99.90;;;;;;5042516;28;20747;-33
2022/07/10 02:32:56;;;;;;;2.60;1.33;;;16.20;99.90;;;;;;5034510;28;20830;-33
2022/07/10 02:35:22;;;;;;;2.37;1.30;;;16.10;99.90;;;;;;5030860;28;20429;-33
2022/07/10 02:37:48;;;;;;;4.40;1.70;;;16.00;99.90;;;;;;5029684;28;20432;-33
2022/07/10 02:40:14;;;;;;;7.47;2.73;;;15.90;99.90;;;;;;5030466;28;20577;-33
2022/07/10 02:42:40;;;;;;;1.70;1.20;;;15.90;99.90;;;;;;5039998;28;20544;-33
2022/07/10 02:45:07;;;;;;;3.00;1.30;;;15.90;99.90;;;;;;5037180;28;20862;-33
2022/07/10 02:47:33;;;;;;;3.17;1.37;;;15.90;99.90;;;;;;5041709;28;20417;-33
2022/07/10 02:49:58;;;;;;;3.73;1.53;;;15.90;99.90;;;;;;5030540;28;20428;-34
2022/07/10 02:52:24;;;;;;;3.23;1.70;;;15.80;99.90;;;;;;5030072;28;20190;-33
2022/07/10 02:54:50;;;;;;;4.10;1.50;;;15.80;99.90;;;;;;5030202;28;20300;-33
2022/07/10 02:57:16;;;;;;;4.10;1.20;;;15.80;99.90;;;;;;5029466;28;20178;-33
2022/07/10 02:59:42;;;;;;;2.40;1.20;;;15.70;99.90;;;;;;5030339;28;20421;-33
2022/07/10 03:02:08;;;;;;;2.50;1.23;;;15.70;99.90;;;;;;5028340;28;20452;-33
2022/07/10 03:04:34;;;;;;;4.70;1.70;;;15.70;99.90;;;;;;5030092;28;20272;-33
2022/07/10 03:07:00;;;;;;;3.40;1.10;;;15.70;99.90;;;;;;5029345;28;20249;-33
2022/07/10 03:09:26;;;;;;;2.80;1.30;;;15.70;99.90;;;;;;5030067;28;20475;-33
2022/07/10 03:11:52;;;;;;;9.20;1.90;;;15.80;99.90;;;;;;5030161;28;20232;-33
2022/07/10 03:14:18;;;;;;;6.80;1.80;;;15.70;99.90;;;;;;5017361;28;20218;-33
2022/07/10 03:16:44;;;;;;;3.97;1.40;;;15.70;99.90;;;;;;5029494;28;20436;-33
2022/07/10 03:19:09;;;;;;;3.70;1.40;;;15.70;99.90;;;;;;5029892;28;20178;-33
2022/07/10 03:21:35;;;;;;;1.87;1.13;;;15.70;99.90;;;;;;5035501;28;20473;-33
2022/07/10 03:24:01;;;;;;;3.20;1.57;;;15.70;99.90;;;;;;5029893;28;20190;-33
2022/07/10 03:26:29;;;;;;;5.30;1.70;;;15.70;99.90;;;;;;5029030;28;20183;-33
2022/07/10 03:28:55;;;;;;;2.70;1.50;;;15.60;99.90;;;;;;5038505;28;20189;-33
2022/07/10 03:31:21;;;;;;;5.23;1.60;;;15.60;99.90;;;;;;5049672;28;20443;-33
2022/07/10 03:33:47;;;;;;;5.00;1.40;;;15.70;99.90;;;;;;5049672;28;20455;-33
2022/07/10 03:36:15;;;;;;;3.57;1.70;;;15.70;99.90;;;;;;5049393;28;20185;-33
2022/07/10 03:38:41;;;;;;;3.20;1.00;;;15.70;99.90;;;;;;5049001;28;20265;-33
2022/07/10 03:41:07;;;;;;;4.40;1.70;;;15.70;99.90;;;;;;5049510;28;20524;-33
2022/07/10 03:43:33;;;;;;;4.07;1.43;;;15.70;99.90;;;;;;5049701;28;20486;-33
2022/07/10 03:45:59;;;;;;;3.10;1.50;;;15.70;99.90;;;;;;5049675;28;20603;-33
2022/07/10 03:48:24;;;;;;;1.73;1.20;;;15.60;99.90;;;;;;5048995;28;20432;-33
2022/07/10 03:50:51;;;;;;;5.03;1.80;;;15.70;99.90;;;;;;5049299;28;20189;-33
2022/07/10 03:53:20;;;;;;;2.23;1.97;;;15.70;99.90;;;;;;5049450;28;20240;-33
2022/07/10 03:55:46;;;;;;;5.17;1.60;;;15.60;99.90;;;;;;5049469;28;20421;-33
2022/07/10 03:58:12;;;;;;;3.67;1.40;;;15.60;99.90;;;;;;5048890;28;20764;-33
2022/07/10 04:00:38;;;;;;;2.50;1.37;;;15.70;99.90;;;;;;5049469;28;20182;-33
2022/07/10 04:03:05;;;;;;;2.67;1.27;;;15.60;99.90;;;;;;5049372;28;20696;-33
2022/07/10 04:05:32;;;;;;;6.10;1.90;;;15.60;99.90;;;;;;5049362;28;20780;-33
2022/07/10 04:07:59;;;;;;;3.30;1.87;;;15.70;99.90;;;;;;5048786;28;20474;-33
2022/07/10 04:10:27;;;;;;;5.33;1.40;;;15.70;99.90;;;;;;5049445;28;20430;-33
2022/07/10 04:12:53;;;;;;;4.67;1.40;;;15.60;99.90;;;;;;5050686;28;20435;-33
2022/07/10 04:15:20;;;;;;;2.43;1.30;;;15.60;99.90;;;;;;5053310;28;20424;-33
2022/07/10 04:17:46;;;;;;;4.23;1.30;;;15.60;99.90;;;;;;5052313;28;20948;-33
2022/07/10 04:20:12;;;;;;;2.77;1.10;;;15.60;99.90;;;;;;5052960;28;20520;-33
2022/07/10 04:22:38;;;;;;;4.40;1.67;;;15.60;99.90;;;;;;5036415;28;20496;-33
2022/07/10 04:25:05;;;;;;;4.87;1.40;;;15.60;99.90;;;;;;5033091;28;20512;-33
2022/07/10 04:27:31;;;;;;;3.03;1.60;;;15.70;99.90;;;;;;5031607;28;20758;-33
2022/07/10 04:29:57;;;;;;;4.90;1.60;;;15.70;99.90;;;;;;5050371;28;20419;-33
2022/07/10 04:32:23;;;;;;;4.40;1.30;;;15.70;99.90;;;;;;5052898;28;20420;-33
2022/07/10 04:34:49;;;;;;;2.17;1.60;;;15.70;99.90;;;;;;5052455;28;20233;-34
2022/07/10 04:37:15;;;;;;;4.50;1.50;;;15.70;99.90;;;;;;5052188;28;20427;-33
2022/07/10 04:39:41;;;;;;;3.80;1.73;;;15.70;99.90;;;;;;5052504;28;20420;-33
2022/07/10 04:42:08;;;;;;;4.03;1.80;;;15.70;99.90;;;;;;5052831;28;20205;-33
2022/07/10 04:44:36;;;;;;;2.67;1.50;;;15.70;99.90;;;;;;5052621;28;20424;-33
2022/07/10 04:47:02;;;;;;;4.07;1.50;;;15.60;99.90;;;;;;5051957;28;20515;-33
2022/07/10 04:49:28;;;;;;;5.70;1.87;;;15.70;99.90;;;;;;5052436;28;20507;-33
2022/07/10 04:51:54;;;;;;;2.80;1.30;;;15.60;99.90;;;;;;5052656;28;20428;-33
2022/07/10 04:54:20;;;;;;;7.07;1.57;;;15.60;99.90;;;;;;5052215;28;20472;-33
2022/07/10 04:56:46;;;;;;;4.80;1.40;;;15.50;99.90;;;;;;5051932;28;20477;-33
2022/07/10 04:59:12;;;;;;;5.40;1.87;;;15.50;99.90;;;;;;5046593;28;20193;-33
2022/07/10 05:01:37;;;;;;;3.87;1.60;;;15.50;99.90;;;;;;5042923;28;20174;-33
2022/07/10 05:04:04;;;;;;;2.97;1.77;;;15.50;99.90;;;;;;5046123;28;20197;-33
2022/07/10 05:06:30;;;;;;;3.73;1.63;;;15.50;99.90;;;;;;5032200;28;20210;-33
2022/07/10 05:08:56;;;;;;;1.40;1.13;;;15.60;99.90;;;;;;5031850;28;20822;-33
2022/07/10 05:11:22;;;;;;;4.60;1.80;;;15.60;99.90;;;;;;5033775;28;20502;-33
2022/07/10 05:13:48;;;;;;;4.63;1.43;;;15.70;99.90;;;;;;5043903;28;20515;-33
2022/07/10 05:16:17;;;;;;;5.43;1.23;;;15.70;99.90;;;;;;5031922;28;20417;-33
2022/07/10 05:18:43;;;;;;;4.40;1.37;;;15.70;99.90;;;;;;5031426;28;20512;-33
2022/07/10 05:21:09;;;;;;;7.03;2.03;;;15.70;99.90;;;;;;5036189;28;20532;-33
2022/07/10 05:23:35;;;;;;;2.40;1.10;;;15.70;99.90;;;;;;5034279;28;20182;-33
2022/07/10 05:26:01;;;;;;;6.70;1.80;;;15.60;99.90;;;;;;5030471;28;20206;-33
2022/07/10 05:28:27;;;;;;;5.90;1.87;;;15.70;99.90;;;;;;5036230;28;20424;-33
2022/07/10 05:30:53;;;;;;;3.70;1.53;;;15.70;99.90;;;;;;5051562;28;20193;-33
2022/07/10 05:33:18;;;;;;;5.50;2.53;;;15.70;99.90;;;;;;5051471;28;20514;-33
2022/07/10 05:35:44;;;;;;;6.03;2.13;;;15.80;99.90;;;;;;5051806;28;20260;-33
2022/07/10 05:38:10;;;;;;;2.23;1.20;;;15.90;99.90;;;;;;5050787;28;20193;-33
2022/07/10 05:40:36;;;;;;;2.60;1.17;;;15.90;99.90;;;;;;5051634;28;20432;-33
2022/07/10 05:43:02;;;;;;;3.97;1.60;;;16.00;99.90;;;;;;5051464;28;20276;-33
2022/07/10 05:45:28;;;;;;;2.60;1.13;;;15.90;99.90;;;;;;5051429;28;20186;-33
2022/07/10 05:47:54;;;;;;;3.20;1.57;;;15.90;99.90;;;;;;5050616;28;20424;-33
2022/07/10 05:50:19;;;;;;;3.73;1.53;;;15.80;99.90;;;;;;5051232;28;20190;-33
2022/07/10 05:52:45;;;;;;;4.00;1.40;;;15.80;99.90;;;;;;5051088;28;20190;-33
2022/07/10 05:55:11;;;;;;;2.70;1.30;;;15.80;99.90;;;;;;5051416;28;20208;-33
2022/07/10 05:57:37;;;;;;;7.43;1.27;;;15.80;99.90;;;;;;5050659;28;20178;-33
2022/07/10 06:00:07;;;;;;;4.80;1.50;;;15.90;99.90;;;;;;5051018;28;20181;-33
2022/07/10 06:02:33;;;;;;;2.57;1.60;;;15.90;99.90;;;;;;5051612;28;20540;-33
2022/07/10 06:04:59;;;;;;;4.07;1.80;;;16.00;99.90;;;;;;5051163;28;20432;-33
2022/07/10 06:07:25;;;;;;;6.83;2.47;;;16.10;99.90;;;;;;5050473;28;20204;-33
2022/07/10 06:09:51;;;;;;;3.70;1.50;;;16.20;99.90;;;;;;5050898;28;20510;-33
2022/07/10 06:12:17;;;;;;;3.53;1.27;;;16.30;99.90;;;;;;5050912;28;20477;-33
2022/07/10 06:14:43;;;;;;;4.60;1.50;;;16.50;99.90;;;;;;5050597;28;20212;-34
2022/07/10 06:17:09;;;;;;;3.50;1.33;;;16.90;99.90;;;;;;5050392;28;20659;-33
2022/07/10 06:19:35;;;;;;;4.00;1.43;;;17.00;99.90;;;;;;5050726;28;20436;-33
2022/07/10 06:24:45;;;;;;;4.40;1.00;;;17.00;99.90;;;;;;5030659;28;20186;-33
2022/07/10 06:27:11;;;;;;;5.00;1.57;;;16.90;99.90;;;;;;5029175;28;20437;-33
2022/07/10 06:29:37;;;;;;;3.40;1.27;;;16.90;99.90;;;;;;5045689;28;20186;-33
2022/07/10 06:32:03;;;;;;;3.03;1.30;;;17.00;99.90;;;;;;5050687;28;20420;-33
2022/07/10 06:34:29;;;;;;;3.40;1.43;;;17.10;99.90;;;;;;5050360;28;21008;-33
2022/07/10 06:36:55;;;;;;;4.27;1.30;;;17.10;99.90;;;;;;5048904;28;20416;-33
2022/07/10 06:39:21;;;;;;;3.97;1.40;;;17.10;99.90;;;;;;5050420;28;20614;-33
2022/07/10 06:41:46;;;;;;;4.50;1.40;;;17.20;99.90;;;;;;5050333;28;20534;-33
2022/07/10 06:44:12;;;;;;;10.47;1.93;;;17.10;99.90;;;;;;5050430;28;20216;-34
2022/07/10 06:46:38;;;;;;;2.90;1.17;;;17.10;99.90;;;;;;5049852;28;20188;-33
2022/07/10 06:49:04;;;;;;;5.07;1.90;;;17.00;99.90;;;;;;5050402;28;20189;-34
2022/07/10 06:51:30;;;;;;;3.07;1.07;;;17.00;99.90;;;;;;5050264;28;20285;-33
2022/07/10 06:53:57;;;;;;;2.50;1.30;;;16.90;99.90;;;;;;5050114;28;20459;-33
2022/07/10 06:56:22;;;;;;;2.40;1.30;;;16.90;99.90;;;;;;5050154;28;20434;-34
2022/07/10 06:58:48;;;;;;;2.70;1.07;;;16.80;99.90;;;;;;5049463;28;20418;-33
2022/07/10 07:01:14;;;;;;;4.17;1.40;;;16.80;99.90;;;;;;5050286;28;20189;-33
2022/07/10 07:03:39;;;;;;;3.17;1.17;;;16.70;99.90;;;;;;5049864;28;20188;-34
2022/07/10 07:06:05;;;;;;;4.33;1.30;;;16.70;99.90;;;;;;5050126;28;20680;-33
2022/07/10 07:08:31;;;;;;;3.10;1.23;;;16.70;99.90;;;;;;5049206;28;20196;-33
2022/07/10 07:10:57;;;;;;;5.73;1.30;;;16.70;99.90;;;;;;5049825;28;20420;-33
2022/07/10 07:13:23;;;;;;;1.80;1.00;;;16.70;99.90;;;;;;5046293;28;21009;-33
2022/07/10 07:16:05;;;;;;;7.47;1.50;;;16.70;99.90;;;;;;5043130;28;20228;-33
2022/07/10 07:18:35;;;;;;;7.03;1.20;;;16.70;99.90;;;;;;5039601;28;20464;-33
2022/07/10 07:23:45;;;;;;;3.20;1.30;;;16.70;99.90;;;;;;5041287;28;20433;-33
2022/07/10 07:26:11;;;;;;;3.20;1.20;;;16.70;99.90;;;;;;5042315;28;20430;-33
2022/07/10 07:28:37;;;;;;;6.00;1.83;;;16.70;99.90;;;;;;5036613;28;20190;-33
2022/07/10 07:31:03;;;;;;;4.23;1.10;;;16.60;99.90;;;;;;5043234;28;20427;-33
2022/07/10 07:33:29;;;;;;;5.97;1.70;;;16.50;99.90;;;;;;5041860;28;20222;-33
2022/07/10 07:35:54;;;;;;;6.13;1.77;;;16.40;99.90;;;;;;5029457;28;20564;-33
2022/07/10 07:38:20;;;;;;;4.00;1.57;;;16.30;99.90;;;;;;5029279;28;20190;-33
2022/07/10 07:40:46;;;;;;;5.10;1.47;;;16.30;99.90;;;;;;5029684;28;20541;-33
2022/07/10 07:43:12;;;;;;;5.23;1.30;;;16.30;99.90;;;;;;5029708;28;20209;-33
2022/07/10 07:45:37;;;;;;;4.90;1.50;;;16.20;99.90;;;;;;5029566;28;20301;-36
2022/07/10 07:48:03;;;;;;;7.00;1.57;;;16.30;99.90;;;;;;5030751;28;20198;-36
2022/07/10 07:50:31;;;;;;;3.47;1.60;;;16.30;99.90;;;;;;5033574;28;20855;-37
2022/07/10 07:52:58;;;;;;;3.20;1.10;;;16.30;99.90;;;;;;5040414;28;20200;-36
2022/07/10 07:55:24;;;;;;;6.77;1.40;;;16.30;99.90;;;;;;5053527;28;20428;-36
2022/07/10 07:57:54;;;;;;;4.60;1.63;;;16.20;99.90;;;;;;5053000;28;20976;-36
2022/07/10 08:00:24;;;;;;;3.73;1.20;;;16.20;99.90;;;;;;5051273;28;20471;-36
2022/07/10 08:02:51;;;;;;;13.73;2.33;;;16.10;99.90;;;;;;5041443;28;20522;-36
2022/07/10 08:05:18;;;;;;;4.60;1.40;;;16.00;99.90;;;;;;5053361;28;20431;-36
2022/07/10 08:07:45;;;;;;;4.73;1.20;;;16.00;99.90;;;;;;5052832;28;20427;-35
2022/07/10 08:10:16;;;;;;;16.83;3.33;;;16.00;99.90;;;;;;5053383;28;20412;-35
2022/07/10 08:12:43;;;;;;;3.33;1.73;;;16.00;99.90;;;;;;5053311;28;20428;-35
2022/07/10 08:15:10;;;;;;;8.93;1.70;;;15.90;99.90;;;;;;5053266;28;20442;-35
2022/07/10 08:17:37;;;;;;;4.93;1.70;;;16.00;99.90;;;;;;5040371;28;20510;-35
2022/07/10 08:20:05;;;;;;;4.23;2.17;;;16.00;99.90;;;;;;5048672;28;20500;-35
2022/07/10 08:22:31;;;;;;;4.87;1.67;;;16.00;99.90;;;;;;5045075;28;20513;-35
2022/07/10 08:24:56;;;;;;;2.40;1.40;;;16.10;99.90;;;;;;5054260;28;20850;-35
2022/07/10 08:27:22;;;;;;;5.53;1.70;;;16.00;99.90;;;;;;5042717;28;20472;-35
2022/07/10 08:29:48;;;;;;;2.83;2.40;;;16.10;99.90;;;;;;5049171;28;20211;-35
2022/07/10 08:32:14;;;;;;;5.10;2.50;;;16.10;99.90;;;;;;5045124;28;20468;-35
2022/07/10 08:34:40;;;;;;;3.60;2.80;;;16.10;99.90;;;;;;5051834;28;20594;-35
2022/07/10 08:37:05;;;;;;;7.90;3.27;;;16.10;99.90;;;;;;5041756;28;20364;-35
2022/07/10 08:39:32;;;;;;;5.23;2.63;;;16.10;99.90;;;;;;5049487;28;20213;-35
2022/07/10 08:41:59;;;;;;;4.27;2.77;;;16.10;99.90;;;;;;5046969;28;20326;-35
2022/07/10 08:44:25;;;;;;;5.30;2.40;;;16.10;99.90;;;;;;5049133;28;20449;-35
2022/07/10 08:46:51;;;;;;;6.40;2.70;;;16.10;99.90;;;;;;5046175;28;20485;-35
2022/07/10 08:49:17;;;;;;;2.97;2.07;;;16.00;99.90;;;;;;5048893;28;20480;-36
2022/07/10 08:52:01;;;;;;;7.67;2.60;;;16.00;99.90;;;;;;5057849;28;20714;-35
2022/07/10 08:54:29;;;;;;;4.07;2.63;;;16.00;99.90;;;;;;5047146;28;20463;-35
2022/07/10 08:57:00;;;;;;;4.43;3.20;;;16.00;99.90;;;;;;5046444;28;20465;-35
2022/07/10 08:59:27;;;;;;;4.17;2.10;;;16.00;99.90;;;;;;5045943;28;20551;-35
2022/07/10 09:01:53;;;;;;;7.00;2.60;;;16.10;99.90;;;;;;5052047;28;20456;-35
2022/07/10 09:04:21;;;;;;;4.40;2.67;;;16.10;99.90;;;;;;5055617;28;20448;-35
2022/07/10 09:06:47;;;;;;;2.50;2.30;;;16.10;99.90;;;;;;5056185;28;20576;-35
2022/07/10 09:09:13;;;;;;;4.57;2.43;;;16.10;99.90;;;;;;5041177;28;20457;-35
2022/07/10 09:11:42;;;;;;;4.40;2.43;;;16.10;99.90;;;;;;5044158;28;20492;-35
2022/07/10 09:14:11;;;;;;;4.33;3.20;;;16.10;99.90;;;;;;5039129;28;21140;-35
2022/07/10 09:16:39;;;;;;;6.67;3.47;;;16.10;99.90;;;;;;5037589;28;20468;-35
2022/07/10 09:19:25;;;;;;;6.90;3.50;;;16.10;99.90;;;;;;5041819;28;20445;-35
2022/07/10 09:21:51;;;;;;;7.10;4.10;;;16.10;99.90;;;;;;5039856;28;20461;-35
2022/07/10 09:24:19;;;;;;;8.60;4.23;;;16.00;99.90;;;;;;5040747;28;20796;-35
2022/07/10 09:27:05;;;;;;;5.17;3.77;;;16.10;99.90;;;;;;5045930;28;20466;-35
2022/07/10 09:29:32;;;;;;;4.57;3.20;;;16.10;99.90;;;;;;5041574;28;20509;-35
2022/07/10 09:32:00;;;;;;;3.93;3.53;;;16.10;99.90;;;;;;5039083;28;20448;-35
2022/07/10 09:34:46;;;;;;;5.37;4.30;;;16.10;99.90;;;;;;5039475;28;20575;-35
2022/07/10 09:37:21;;;;;;;5.33;4.40;;;16.10;99.90;;;;;;5036822;28;21032;-35
2022/07/10 09:40:03;;;;;;;4.83;4.23;;;16.10;99.90;;;;;;5038195;28;20459;-35
2022/07/10 09:42:36;;;;;;;8.27;4.17;;;16.10;99.90;;;;;;5044695;28;20444;-35
2022/07/10 09:45:13;;;;;;;5.70;4.43;;;16.00;99.90;;;;;;5038050;28;20529;-35
2022/07/10 09:47:39;;;;;;;4.40;4.00;;;16.10;99.90;;;;;;5040724;28;20501;-35
2022/07/10 09:50:21;;;;;;;4.93;3.60;;;16.10;99.90;;;;;;5040271;28;20472;-35
2022/07/10 09:52:47;;;;;;;7.43;4.30;;;16.20;99.90;;;;;;5038211;28;20452;-35
2022/07/10 09:55:14;;;;;;;3.60;3.30;;;16.30;99.90;;;;;;5043609;28;20490;-35
2022/07/10 09:57:43;;;;;;;4.20;3.70;;;16.30;99.90;;;;;;5035855;28;20534;-35
2022/07/10 10:00:10;;;;;;;4.70;4.00;;;16.40;99.90;;;;;;5042033;28;20440;-35
2022/07/10 10:02:38;;;;;;;3.60;3.20;;;16.40;99.90;;;;;;5045982;28;20453;-35
2022/07/10 10:05:05;;;;;;;4.10;3.43;;;16.30;99.90;;;;;;5045535;28;20985;-35
2022/07/10 10:07:34;;;;;;;5.10;2.97;;;16.20;99.90;;;;;;5046354;28;20537;-35
2022/07/10 10:10:03;;;;;;;3.57;3.23;;;16.30;99.90;;;;;;5039658;28;21005;-35
2022/07/10 10:12:45;;;;;;;5.50;3.77;;;16.30;99.90;;;;;;5050164;28;20458;-35
2022/07/10 10:15:11;;;;;;;4.80;3.50;;;16.40;99.90;;;;;;5056184;28;20903;-35
2022/07/10 10:17:40;;;;;;;7.70;4.30;;;16.30;99.90;;;;;;5046567;28;20987;-35
2022/07/10 10:22:55;;;;;;;6.10;5.50;;;16.40;99.90;;;;;;5042956;28;20563;-35
2022/07/10 10:25:23;;;;;;;7.10;4.90;;;16.40;99.90;;;;;;5033374;28;20958;-35
2022/07/10 10:27:50;;;;;;;6.33;5.73;;;16.40;99.90;;;;;;5041328;28;20467;-35
2022/07/10 10:30:17;;;;;;;5.93;5.37;;;16.40;99.90;;;;;;5037733;28;20470;-35
2022/07/10 10:32:43;;;;;;;6.40;5.80;;;16.40;99.90;;;;;;5046322;28;20459;-35
2022/07/10 10:35:15;;;;;;;8.20;6.00;;;16.50;99.90;;;;;;5043083;28;20471;-36
2022/07/10 10:37:43;;;;;;;7.60;6.60;;;16.40;99.90;;;;;;5038286;28;20263;-35
2022/07/10 10:40:29;;;;;;;7.27;6.50;;;16.40;99.90;;;;;;5040484;28;20809;-35
2022/07/10 10:42:55;;;;;;;8.17;6.17;;;16.40;99.90;;;;;;5045335;28;20471;-35
2022/07/10 10:45:27;;;;;;;7.10;6.40;;;16.40;99.90;;;;;;5042461;28;20795;-35
2022/07/10 10:48:10;;;;;;;8.33;6.30;;;16.30;99.90;;;;;;5041270;28;20210;-35
2022/07/10 10:50:41;;;;;;;8.90;6.53;;;16.30;99.90;;;;;;5036780;28;20961;-36
2022/07/10 10:53:14;;;;;;;8.60;6.30;;;16.30;99.90;;;;;;5035632;28;20454;-35
2022/07/10 10:55:41;;;;;;;12.67;7.77;;;16.30;99.90;;;;;;5042727;28;20444;-35
2022/07/10 10:58:18;;;;;;;9.03;6.90;;;16.40;99.90;;;;;;5044820;28;20459;-35
2022/07/10 11:00:44;;;;;;;9.00;7.20;;;16.40;99.90;;;;;;5032259;28;21034;-35
2022/07/10 11:03:18;;;;;;;7.30;6.60;;;16.40;99.90;;;;;;5030194;28;20924;-35
2022/07/10 11:05:45;;;;;;;9.17;8.27;;;16.30;99.90;;;;;;5030115;28;20444;-35
2022/07/10 11:08:11;;;;;;;7.80;6.93;;;16.30;99.90;;;;;;5029378;28;20413;-35
2022/07/10 11:10:45;;;;;;;9.00;8.10;;;16.30;99.90;;;;;;5030305;28;20429;-35
2022/07/10 11:13:15;;;;;;;8.50;7.70;;;16.50;99.90;;;;;;5030052;28;20829;-35
2022/07/10 11:15:47;;;;;;;11.20;8.70;;;16.50;99.90;;;;;;5037589;28;20412;-35
2022/07/10 11:18:28;;;;;;;12.40;9.07;;;16.60;99.90;;;;;;5034343;28;20418;-35
2022/07/10 11:20:54;;;;;;;13.53;9.80;;;16.70;99.90;;;;;;5033985;28;20409;-35
2022/07/10 11:23:53;;;;;;;10.57;9.30;;;16.70;99.90;;;;;;5035633;28;20566;-35
2022/07/10 11:27:04;;;;;;;11.03;9.93;;;16.70;99.90;;;;;;5028517;28;20197;-35
2022/07/10 11:29:37;;;;;;;12.60;11.30;;;16.70;99.90;;;;;;5042981;28;20428;-36
2022/07/10 11:32:03;;;;;;;16.50;12.80;;;16.70;99.90;;;;;;5049895;28;20420;-35
2022/07/10 11:34:36;;;;;;;16.47;14.17;;;16.70;99.90;;;;;;5049497;28;20460;-35
2022/07/10 11:37:16;;;;;;;14.17;12.60;;;16.70;99.90;;;;;;5049269;28;20906;-36
2022/07/10 11:39:42;;;;;;;19.07;17.07;;;16.80;99.90;;;;;;5049454;28;20431;-35
2022/07/10 11:42:09;;;;;;;16.27;14.53;;;16.90;99.90;;;;;;5049883;28;20432;-36
2022/07/10 11:44:34;;;;;;;19.03;14.33;;;17.10;99.90;;;;;;5049526;28;20791;-35
2022/07/10 11:47:02;;;;;;;14.13;12.73;;;17.20;99.90;;;;;;5049137;28;20470;-35
2022/07/10 11:49:29;;;;;;;14.73;13.23;;;17.30;99.90;;;;;;5049501;28;20220;-36
2022/07/10 11:52:02;;;;;;;14.83;13.20;;;17.40;99.90;;;;;;5049721;28;20471;-35
2022/07/10 11:54:27;;;;;;;13.10;10.10;;;17.40;99.90;;;;;;5049435;28;20792;-36
2022/07/10 11:56:54;;;;;;;11.97;10.33;;;17.40;99.90;;;;;;5048878;28;20430;-36
2022/07/10 11:59:27;;;;;;;9.73;8.60;;;17.50;99.90;;;;;;5049512;28;20186;-36
2022/07/10 12:01:55;;;;;;;8.67;7.77;;;17.50;99.90;;;;;;5049542;28;20424;-36
2022/07/10 12:04:25;;;;;;;7.60;6.90;;;17.60;99.90;;;;;;5049464;28;20846;-35
2022/07/10 12:06:53;;;;;;;7.30;6.60;;;17.60;99.90;;;;;;5048694;28;20440;-35
2022/07/10 12:09:21;;;;;;;6.47;5.87;;;17.50;99.90;;;;;;5049528;28;20416;-36
2022/07/10 12:12:06;;;;;;;6.53;5.90;;;17.50;99.90;;;;;;5049322;28;20420;-36
2022/07/10 12:14:33;;;;;;;7.00;6.03;;;17.50;99.90;;;;;;5038235;28;20570;-36
2022/07/10 12:16:59;;;;;;;5.27;4.77;;;17.50;99.90;;;;;;5037205;28;20421;-36
2022/07/10 12:19:30;;;;;;;5.23;4.57;;;17.40;99.90;;;;;;5046243;28;20424;-35
2022/07/10 12:21:57;;;;;;;4.50;4.10;;;17.40;99.90;;;;;;5037232;28;20785;-36
2022/07/10 12:24:23;;;;;;;4.50;4.10;;;17.40;99.90;;;;;;5042182;28;20513;-36
2022/07/10 12:26:51;;;;;;;6.03;4.10;;;17.40;99.90;;;;;;5041045;28;20441;-36
2022/07/10 12:29:29;;;;;;;3.70;3.40;;;17.40;99.90;;;;;;5044016;28;20432;-35
2022/07/10 12:31:56;;;;;;;4.00;3.60;;;17.40;99.90;;;;;;5039085;28;20432;-35
2022/07/10 12:34:39;;;;;;;2.73;2.53;;;17.40;99.90;;;;;;5050590;28;20534;-35
2022/07/10 12:37:13;;;;;;;2.57;2.30;;;17.50;99.90;;;;;;5038419;28;20468;-36
2022/07/10 12:39:50;;;;;;;2.70;2.50;;;17.50;99.90;;;;;;5032723;28;20486;-36
2022/07/10 12:42:29;;;;;;;3.40;3.10;;;17.60;99.90;;;;;;5032587;28;20587;-36
2022/07/10 12:45:12;;;;;;;3.33;3.13;;;17.60;99.90;;;;;;5032814;28;20420;-36
2022/07/10 12:47:48;;;;;;;3.30;3.10;;;17.50;99.90;;;;;;5033934;28;20436;-36
2022/07/10 12:50:18;;;;;;;3.67;3.37;;;17.60;99.90;;;;;;5049725;28;20431;-35
2022/07/10 12:52:44;;;;;;;3.40;3.20;;;17.60;99.90;;;;;;5041573;28;20435;-35
2022/07/10 12:55:15;;;;;;;3.00;2.70;;;17.70;99.90;;;;;;5039263;28;20464;-35
2022/07/10 12:57:49;;;;;;;3.60;3.30;;;17.70;99.90;;;;;;5030994;28;20512;-35
2022/07/10 13:00:36;;;;;;;4.00;3.70;;;17.70;99.90;;;;;;5032212;28;20421;-35